Terminal Aerodrome Forecast
Issued by NWS Grand Forks, ND

Home | Current Version | Previous Version | Text Only | Print | Product List | Glossary Off
Versions: 1 2 3 4 5 6 7 8 9 10 11 12 13 14 15 16 17

390
FTUS43 KFGF 091735
TAFFAR
TAF
KFAR 091735Z 0918/1018 22008KT P6SM BKN025 OVC070
     FM091930 22012KT P6SM SCT025 BKN080
     FM100200 29010KT P6SM BKN200
     FM100800 33010KT P6SM BKN025
     FM101600 34007KT P6SM BKN020=

USA.gov is the U.S. government's official web portal to all federal, state and local government web resources and services.